createdAt,value
2018-04-27T00:01:16.463Z,3.63
2018-04-27T00:03:43.977Z,3.63
2018-04-27T00:06:11.599Z,2.93
2018-04-27T00:08:39.107Z,3.40
2018-04-27T00:11:06.619Z,3.13
2018-04-27T00:13:34.137Z,3.43
2018-04-27T00:16:01.784Z,3.37
2018-04-27T00:18:29.311Z,2.93
2018-04-27T00:20:56.833Z,3.20
2018-04-27T00:23:25.106Z,3.10
2018-04-27T00:25:53.554Z,2.83
2018-04-27T00:28:21.070Z,3.20
2018-04-27T00:30:48.582Z,3.23
2018-04-27T00:33:16.087Z,3.70
2018-04-27T00:35:43.607Z,3.37
2018-04-27T00:38:11.879Z,3.17
2018-04-27T00:40:40.161Z,3.23
2018-04-27T00:43:08.439Z,3.13
2018-04-27T00:45:36.723Z,3.30
2018-04-27T00:48:05.112Z,3.50
2018-04-27T00:50:32.613Z,3.40
2018-04-27T00:53:12.089Z,3.10
2018-04-27T00:55:39.648Z,3.17
2018-04-27T00:58:07.190Z,3.43
2018-04-27T01:00:34.823Z,3.10
2018-04-27T01:03:02.342Z,3.13
2018-04-27T01:05:29.849Z,3.40
2018-04-27T01:07:57.376Z,3.43
2018-04-27T01:10:24.896Z,3.57
2018-04-27T01:12:52.578Z,3.27
2018-04-27T01:15:20.082Z,3.37
2018-04-27T01:17:47.588Z,3.40
2018-04-27T01:20:15.872Z,3.57
2018-04-27T01:22:43.459Z,3.30
2018-04-27T01:25:10.989Z,3.37
2018-04-27T01:27:38.554Z,3.47
2018-04-27T01:30:06.211Z,3.20
2018-04-27T01:32:33.951Z,3.27
2018-04-27T01:35:02.243Z,3.57
2018-04-27T01:37:29.764Z,3.60
2018-04-27T01:39:57.290Z,3.43
2018-04-27T01:42:24.799Z,3.33
2018-04-27T01:44:53.487Z,3.40
2018-04-27T01:47:21.916Z,3.13
2018-04-27T01:49:49.446Z,3.73
2018-04-27T01:52:17.047Z,4.07
2018-04-27T01:54:44.490Z,3.60
2018-04-27T01:57:12.131Z,3.40
2018-04-27T01:59:39.638Z,3.23
2018-04-27T02:02:07.146Z,3.63
2018-04-27T02:04:34.672Z,3.53
2018-04-27T02:07:02.186Z,3.50
2018-04-27T02:09:30.215Z,3.10
2018-04-27T02:11:57.734Z,3.50
2018-04-27T02:14:25.251Z,3.50
2018-04-27T02:16:53.619Z,3.57
2018-04-27T02:19:21.371Z,5.07
2018-04-27T02:21:49.643Z,3.83
2018-04-27T02:24:17.926Z,3.23
2018-04-27T02:26:46.198Z,3.60
2018-04-27T02:29:14.595Z,3.60
2018-04-27T02:31:42.116Z,3.60
2018-04-27T02:34:09.645Z,3.30
2018-04-27T02:36:37.152Z,3.77
2018-04-27T02:39:04.830Z,3.93
2018-04-27T02:41:32.341Z,4.20
2018-04-27T02:43:59.845Z,3.67
2018-04-27T02:46:27.367Z,4.03
2018-04-27T02:48:56.395Z,3.67
2018-04-27T02:51:23.916Z,4.10
2018-04-27T02:53:51.436Z,3.53
2018-04-27T02:56:18.944Z,3.73
2018-04-27T02:58:47.238Z,4.17
2018-04-27T03:01:15.529Z,4.40
2018-04-27T03:03:43.042Z,4.00
2018-04-27T03:06:10.606Z,3.73
2018-04-27T03:08:38.133Z,3.70
2018-04-27T03:11:05.633Z,3.97
2018-04-27T03:13:33.160Z,4.00
2018-04-27T03:16:00.673Z,4.63
2018-04-27T03:18:28.207Z,4.07
2018-04-27T03:20:56.660Z,4.23
2018-04-27T03:23:24.158Z,4.60
2018-04-27T03:25:51.798Z,4.40
2018-04-27T03:28:19.317Z,4.60
2018-04-27T03:30:46.837Z,4.27
2018-04-27T03:33:14.372Z,5.00
2018-04-27T03:35:41.907Z,4.20
2018-04-27T03:38:09.413Z,4.70
2018-04-27T03:40:37.699Z,4.40
2018-04-27T03:43:05.216Z,5.30
2018-04-27T03:45:33.506Z,4.43
2018-04-27T03:48:01.040Z,4.53
2018-04-27T03:50:28.652Z,4.83
2018-04-27T03:52:56.161Z,4.90
2018-04-27T03:55:23.677Z,5.13
2018-04-27T03:57:51.204Z,4.37
2018-04-27T04:00:30.510Z,5.00
2018-04-27T04:03:09.815Z,5.27
2018-04-27T04:05:37.413Z,5.40
2018-04-27T04:08:04.937Z,4.73
2018-04-27T04:10:32.450Z,5.73
2018-04-27T04:12:59.974Z,5.13
2018-04-27T04:15:27.496Z,5.60
2018-04-27T04:17:55.008Z,5.43
2018-04-27T04:20:22.527Z,5.20
2018-04-27T04:22:50.045Z,5.27
2018-04-27T04:25:18.326Z,5.40
2018-04-27T04:27:46.595Z,5.00
2018-04-27T04:30:14.887Z,5.00
2018-04-27T04:32:42.393Z,6.53
2018-04-27T04:35:09.905Z,5.50
2018-04-27T04:37:37.457Z,4.80
2018-04-27T04:40:04.969Z,5.70
2018-04-27T04:42:32.475Z,4.80
2018-04-27T04:45:00.135Z,6.13
2018-04-27T04:47:27.652Z,5.80
2018-04-27T04:49:55.169Z,5.63
2018-04-27T04:52:22.784Z,5.23
2018-04-27T04:54:50.271Z,5.60
2018-04-27T04:57:17.795Z,5.57
2018-04-27T04:59:46.100Z,5.87
2018-04-27T05:02:13.640Z,5.30
2018-04-27T05:04:41.982Z,5.40
2018-04-27T05:07:09.495Z,5.27
2018-04-27T05:09:37.019Z,5.67
2018-04-27T05:12:04.541Z,5.63
2018-04-27T05:14:32.079Z,5.37
2018-04-27T05:16:59.594Z,5.60
2018-04-27T05:19:27.096Z,5.47
2018-04-27T05:21:54.603Z,5.07
2018-04-27T05:24:22.145Z,5.60
2018-04-27T05:26:49.783Z,5.40
2018-04-27T05:29:18.975Z,5.70
2018-04-27T05:31:47.857Z,5.23
2018-04-27T05:34:18.068Z,5.70
2018-04-27T05:36:48.955Z,5.20
2018-04-27T05:39:18.019Z,4.83
2018-04-27T05:41:45.553Z,4.83
2018-04-27T05:44:13.078Z,5.60
2018-04-27T05:46:40.698Z,5.23
2018-04-27T05:49:08.879Z,4.93
2018-04-27T05:51:36.721Z,5.00
2018-04-27T05:54:04.236Z,5.00
2018-04-27T05:56:32.570Z,5.07
2018-04-27T05:59:00.072Z,5.70
2018-04-27T06:01:27.603Z,5.60
2018-04-27T06:04:07.175Z,5.60
2018-04-27T06:06:34.717Z,5.00
2018-04-27T06:09:03.003Z,4.93
2018-04-27T06:11:32.109Z,5.67
2018-04-27T06:13:59.700Z,5.33
2018-04-27T06:16:27.294Z,5.20
2018-04-27T06:18:54.836Z,5.67
2018-04-27T06:21:22.359Z,5.20
2018-04-27T06:23:50.641Z,5.70
2018-04-27T06:26:18.918Z,5.10
2018-04-27T06:28:49.041Z,5.20
2018-04-27T06:31:17.343Z,5.30
2018-04-27T06:33:44.866Z,4.80
2018-04-27T06:36:12.398Z,4.83
2018-04-27T06:38:39.907Z,5.20
2018-04-27T06:41:07.414Z,4.97
2018-04-27T06:43:34.924Z,4.73
2018-04-27T06:46:02.444Z,5.73
2018-04-27T06:48:29.972Z,4.43
2018-04-27T06:50:58.342Z,5.10
2018-04-27T06:53:25.892Z,5.03
2018-04-27T06:55:53.418Z,4.53
2018-04-27T06:58:20.982Z,5.03
2018-04-27T07:00:49.245Z,4.80
2018-04-27T07:03:17.554Z,4.97
2018-04-27T07:05:45.079Z,5.23
2018-04-27T07:08:12.625Z,4.87
2018-04-27T07:10:40.164Z,4.90
2018-04-27T07:13:07.699Z,5.20
2018-04-27T07:15:35.249Z,4.90
2018-04-27T07:18:03.591Z,5.77
2018-04-27T07:20:31.091Z,5.73
2018-04-27T07:22:58.627Z,5.87
2018-04-27T07:25:26.125Z,4.93
2018-04-27T07:27:53.655Z,6.17
2018-04-27T07:30:21.205Z,5.83
2018-04-27T07:32:48.723Z,5.87
2018-04-27T07:35:17.756Z,5.80
2018-04-27T07:37:45.475Z,6.27
2018-04-27T07:40:13.005Z,5.97
2018-04-27T07:42:40.559Z,6.33
2018-04-27T07:45:08.077Z,5.97
2018-04-27T07:47:35.649Z,7.23
2018-04-27T07:50:03.162Z,7.17
2018-04-27T07:52:30.677Z,6.77
2018-04-27T07:54:58.209Z,6.67
2018-04-27T07:57:26.515Z,6.80
2018-04-27T07:59:54.036Z,6.33
2018-04-27T08:02:21.583Z,7.30
2018-04-27T08:04:49.096Z,6.83
2018-04-27T08:07:16.653Z,6.87
2018-04-27T08:09:44.193Z,6.77
2018-04-27T08:12:11.731Z,6.60
2018-04-27T08:14:39.297Z,6.60
2018-04-27T08:17:07.571Z,6.57
2018-04-27T08:19:35.848Z,6.83
2018-04-27T08:22:04.133Z,5.97
2018-04-27T08:24:32.429Z,6.27
2018-04-27T08:26:59.959Z,6.97
2018-04-27T08:29:27.470Z,6.03
2018-04-27T08:31:54.990Z,6.63
2018-04-27T08:34:22.504Z,6.17
2018-04-27T08:36:50.020Z,6.57
2018-04-27T08:39:17.536Z,5.60
2018-04-27T08:41:45.050Z,5.57
2018-04-27T08:44:12.574Z,5.60
2018-04-27T08:46:40.862Z,5.70
2018-04-27T08:49:08.528Z,5.33
2018-04-27T08:51:36.045Z,6.23
2018-04-27T08:54:03.561Z,5.73
2018-04-27T08:56:31.083Z,6.00
2018-04-27T08:58:59.373Z,6.20
2018-04-27T09:01:26.948Z,6.10
2018-04-27T09:03:54.461Z,5.83
2018-04-27T09:06:22.798Z,4.20
2018-04-27T09:08:51.037Z,5.77
2018-04-27T09:11:19.327Z,5.00
2018-04-27T09:13:46.875Z,4.77
2018-04-27T09:16:14.452Z,4.87
2018-04-27T09:18:41.967Z,5.17
2018-04-27T09:21:09.517Z,5.50
2018-04-27T09:23:37.143Z,4.20
2018-04-27T09:26:04.656Z,3.80
2018-04-27T09:28:32.966Z,4.23
2018-04-27T09:31:00.531Z,4.47
2018-04-27T09:33:28.099Z,4.13
2018-04-27T09:35:55.635Z,3.13
2018-04-27T09:38:23.168Z,3.73
2018-04-27T09:40:51.453Z,5.00
2018-04-27T09:43:19.004Z,4.30
2018-04-27T09:45:46.691Z,4.43
2018-04-27T09:48:14.207Z,3.60
2018-04-27T09:50:42.068Z,3.83
2018-04-27T09:53:09.546Z,4.50
2018-04-27T09:55:37.855Z,4.27
2018-04-27T09:58:05.377Z,4.13
2018-04-27T10:00:32.885Z,4.33
2018-04-27T10:03:00.439Z,4.67
2018-04-27T10:05:27.988Z,4.70
2018-04-27T10:07:55.501Z,5.13
2018-04-27T10:10:23.791Z,5.70
2018-04-27T10:12:52.101Z,4.90
2018-04-27T10:15:19.643Z,5.43
2018-04-27T10:17:47.159Z,5.27
2018-04-27T10:20:14.698Z,5.50
2018-04-27T10:22:42.263Z,6.40
2018-04-27T10:25:09.835Z,4.80
2018-04-27T10:27:37.535Z,4.90
2018-04-27T10:30:05.238Z,4.67
2018-04-27T10:32:32.846Z,5.87
2018-04-27T10:35:00.466Z,6.13
2018-04-27T10:37:28.000Z,6.27
2018-04-27T10:39:55.547Z,6.17
2018-04-27T10:42:23.071Z,6.13
2018-04-27T10:44:51.381Z,6.03
2018-04-27T10:47:18.915Z,4.50
2018-04-27T10:49:47.209Z,3.23
2018-04-27T10:52:14.749Z,3.60
2018-04-27T10:54:42.273Z,4.60
2018-04-27T10:57:10.547Z,4.07
2018-04-27T10:59:38.546Z,4.50
2018-04-27T11:02:06.070Z,4.10
2018-04-27T11:04:33.604Z,3.77
2018-04-27T11:07:01.161Z,3.37
2018-04-27T11:09:28.738Z,3.00
2018-04-27T11:11:56.258Z,3.67
2018-04-27T11:14:23.773Z,3.57
2018-04-27T11:16:51.551Z,3.70
2018-04-27T11:19:18.856Z,3.87
2018-04-27T11:21:46.389Z,4.63
2018-04-27T11:24:13.931Z,4.20
2018-04-27T11:26:41.442Z,3.17
2018-04-27T11:29:09.809Z,3.47
2018-04-27T11:31:37.337Z,3.30
2018-04-27T11:34:05.746Z,3.37
2018-04-27T11:36:33.269Z,3.63
2018-04-27T11:39:00.789Z,3.97
2018-04-27T11:41:28.303Z,3.27
2018-04-27T11:43:55.815Z,3.47
2018-04-27T11:46:23.356Z,3.60
2018-04-27T11:48:50.903Z,3.97
2018-04-27T11:51:18.433Z,3.53
2018-04-27T11:53:45.955Z,3.37
2018-04-27T11:56:13.490Z,3.70
2018-04-27T11:58:41.018Z,2.93
2018-04-27T12:01:08.596Z,3.00
2018-04-27T12:03:36.151Z,3.60
2018-04-27T12:06:03.668Z,3.20
2018-04-27T12:08:31.967Z,4.20
2018-04-27T12:10:59.550Z,3.60
2018-04-27T12:13:27.097Z,3.97
2018-04-27T12:15:54.635Z,3.60
2018-04-27T12:18:22.166Z,3.50
2018-04-27T12:20:49.694Z,3.10
2018-04-27T12:23:17.217Z,3.20
2018-04-27T12:25:44.747Z,3.93
2018-04-27T12:28:13.058Z,3.30
2018-04-27T12:30:40.600Z,2.93
2018-04-27T12:33:08.139Z,3.17
2018-04-27T12:35:36.421Z,2.77
2018-04-27T12:38:05.423Z,3.10
2018-04-27T12:40:32.975Z,3.20
2018-04-27T12:43:01.282Z,2.73
2018-04-27T12:45:28.783Z,3.47
2018-04-27T12:47:56.440Z,3.80
2018-04-27T12:50:23.969Z,3.17
2018-04-27T12:52:51.517Z,3.27
2018-04-27T12:55:19.040Z,3.47
2018-04-27T12:57:47.436Z,3.50
2018-04-27T13:00:14.963Z,3.17
2018-04-27T13:02:42.491Z,3.00
2018-04-27T13:05:09.995Z,2.83
2018-04-27T13:07:37.535Z,3.30
2018-04-27T13:10:05.065Z,2.67
2018-04-27T13:12:32.667Z,2.50
2018-04-27T13:15:00.222Z,2.47
2018-04-27T13:17:28.075Z,2.77
2018-04-27T13:19:56.415Z,2.50
2018-04-27T13:22:23.935Z,2.77
2018-04-27T13:24:52.250Z,2.63
2018-04-27T13:27:19.796Z,2.37
2018-04-27T13:29:47.333Z,2.00
2018-04-27T13:32:15.817Z,2.53
2018-04-27T13:34:44.100Z,2.70
2018-04-27T13:37:11.639Z,2.40
2018-04-27T13:39:39.981Z,2.70
2018-04-27T13:42:07.523Z,2.77
2018-04-27T13:44:35.040Z,3.00
2018-04-27T13:47:02.581Z,2.57
2018-04-27T13:49:30.201Z,2.30
2018-04-27T13:51:57.819Z,2.50
2018-04-27T13:54:25.321Z,2.10
2018-04-27T13:56:52.860Z,1.73
2018-04-27T13:59:20.505Z,2.07
2018-04-27T14:01:49.769Z,2.23
2018-04-27T14:04:17.323Z,1.80
2018-04-27T14:06:44.849Z,1.90
2018-04-27T14:09:13.173Z,1.80
2018-04-27T14:11:40.699Z,1.80
2018-04-27T14:14:08.220Z,1.70
2018-04-27T14:16:35.891Z,1.40
2018-04-27T14:19:04.347Z,1.33
2018-04-27T14:21:31.957Z,1.43
2018-04-27T14:23:59.481Z,1.60
2018-04-27T14:26:27.012Z,1.70
2018-04-27T14:28:54.533Z,1.80
2018-04-27T14:31:22.063Z,1.60
2018-04-27T14:33:49.672Z,2.10
2018-04-27T14:36:17.163Z,2.20
2018-04-27T14:38:44.689Z,2.20
2018-04-27T14:41:12.223Z,2.33
2018-04-27T14:43:39.739Z,1.80
2018-04-27T14:46:07.267Z,2.27
2018-04-27T14:48:34.806Z,1.90
2018-04-27T14:51:02.336Z,2.07
2018-04-27T14:53:29.862Z,1.90
2018-04-27T14:55:58.179Z,2.20
2018-04-27T14:58:25.730Z,2.13
2018-04-27T15:00:53.298Z,1.70
2018-04-27T15:03:20.829Z,1.70
2018-04-27T15:05:48.585Z,1.90
2018-04-27T15:08:16.876Z,1.83
2018-04-27T15:10:45.175Z,2.03
2018-04-27T15:13:12.697Z,2.00
2018-04-27T15:15:41.328Z,1.97
2018-04-27T15:18:08.938Z,2.47
2018-04-27T15:20:37.356Z,2.37
2018-04-27T15:23:04.883Z,2.23
2018-04-27T15:25:33.168Z,2.30
2018-04-27T15:28:00.939Z,2.10
2018-04-27T15:30:28.491Z,2.13
2018-04-27T15:32:57.076Z,2.50
2018-04-27T15:35:24.599Z,2.57
2018-04-27T15:37:52.134Z,2.43
2018-04-27T15:40:19.764Z,3.00
2018-04-27T15:42:47.281Z,2.27
2018-04-27T15:45:14.800Z,2.67
2018-04-27T15:47:42.320Z,2.73
2018-04-27T15:50:10.724Z,2.50
2018-04-27T15:52:38.278Z,2.80
2018-04-27T15:55:05.812Z,2.70
2018-04-27T15:57:33.567Z,2.50
2018-04-27T16:00:01.863Z,2.80
2018-04-27T16:02:29.446Z,2.63
2018-04-27T16:04:56.991Z,3.20
2018-04-27T16:07:25.228Z,2.80
2018-04-27T16:09:52.742Z,2.70
2018-04-27T16:12:20.269Z,3.27
2018-04-27T16:14:47.817Z,4.00
2018-04-27T16:17:16.108Z,4.83
2018-04-27T16:19:43.675Z,10.30
2018-04-27T16:22:11.195Z,8.90
2018-04-27T16:24:38.787Z,3.70
2018-04-27T16:27:06.294Z,6.07
2018-04-27T16:29:33.828Z,2.43
2018-04-27T16:32:01.342Z,3.50
2018-04-27T16:34:29.708Z,2.40
2018-04-27T16:36:57.210Z,2.30
2018-04-27T16:39:24.716Z,2.17
2018-04-27T16:41:52.319Z,2.60
2018-04-27T16:44:20.576Z,2.80
2018-04-27T16:46:49.683Z,2.70
2018-04-27T16:49:17.978Z,2.73
2018-04-27T16:51:45.500Z,2.47
2018-04-27T16:54:13.042Z,3.07
2018-04-27T16:56:40.554Z,2.83
2018-04-27T16:59:08.157Z,2.87
2018-04-27T17:01:35.684Z,2.67
2018-04-27T17:04:03.240Z,3.03
2018-04-27T17:06:30.767Z,3.10
2018-04-27T17:08:59.062Z,2.67
2018-04-27T17:11:26.606Z,2.77
2018-04-27T17:13:54.122Z,3.07
2018-04-27T17:16:21.675Z,2.90
2018-04-27T17:18:49.241Z,2.93
2018-04-27T17:21:17.600Z,3.67
2018-04-27T17:23:45.338Z,6.77
2018-04-27T17:26:12.860Z,3.40
2018-04-27T17:28:41.175Z,2.93
2018-04-27T17:31:08.713Z,2.10
2018-04-27T17:33:36.242Z,1.80
2018-04-27T17:36:05.258Z,1.93
2018-04-27T17:38:32.788Z,1.87
2018-04-27T17:41:00.356Z,2.20
2018-04-27T17:43:27.894Z,2.13
2018-04-27T17:45:55.441Z,1.97
2018-04-27T17:48:23.019Z,1.83
2018-04-27T17:50:50.548Z,1.60
2018-04-27T17:53:18.074Z,1.90
2018-04-27T17:55:45.620Z,1.70
2018-04-27T17:58:13.168Z,2.03
2018-04-27T18:00:40.692Z,1.80
2018-04-27T18:03:08.418Z,2.10
2018-04-27T18:05:35.967Z,2.50
2018-04-27T18:08:04.257Z,2.03
2018-04-27T18:10:32.092Z,1.90
2018-04-27T18:13:00.463Z,2.10
2018-04-27T18:15:28.112Z,2.03
2018-04-27T18:17:57.024Z,2.33
2018-04-27T18:20:25.324Z,2.17
2018-04-27T18:22:52.946Z,1.80
2018-04-27T18:25:20.547Z,2.00
2018-04-27T18:27:48.877Z,1.40
2018-04-27T18:30:17.199Z,1.67
2018-04-27T18:32:44.849Z,1.70
2018-04-27T18:35:12.411Z,1.60
2018-04-27T18:37:39.970Z,1.50
2018-04-27T18:40:07.517Z,1.50
2018-04-27T18:42:35.835Z,1.40
2018-04-27T18:45:03.384Z,1.87
2018-04-27T18:47:30.936Z,1.60
2018-04-27T18:49:58.504Z,1.30
2018-04-27T18:52:26.039Z,1.47
2018-04-27T18:54:54.416Z,1.63
2018-04-27T18:57:25.672Z,1.80
2018-04-27T18:59:53.238Z,1.73
2018-04-27T19:02:20.857Z,1.60
2018-04-27T19:04:48.595Z,1.40
2018-04-27T19:07:16.152Z,1.47
2018-04-27T19:09:43.739Z,1.47
2018-04-27T19:12:11.292Z,1.50
2018-04-27T19:14:38.861Z,1.30
2018-04-27T19:17:06.519Z,1.40
2018-04-27T19:19:34.132Z,1.20
2018-04-27T19:22:01.963Z,1.53
2018-04-27T19:24:29.526Z,1.97
2018-04-27T19:26:58.811Z,1.87
2018-04-27T19:29:27.284Z,2.87
2018-04-27T19:31:55.666Z,2.30
2018-04-27T19:34:23.291Z,2.60
2018-04-27T19:36:51.464Z,2.93
2018-04-27T19:39:19.036Z,2.57
2018-04-27T19:41:46.598Z,2.07
2018-04-27T19:44:15.015Z,2.00
2018-04-27T19:46:42.551Z,2.03
2018-04-27T19:49:10.112Z,1.87
2018-04-27T19:51:37.685Z,2.07
2018-04-27T19:54:06.694Z,2.00
2018-04-27T19:56:34.237Z,2.10
2018-04-27T19:59:02.611Z,1.63
2018-04-27T20:01:30.141Z,1.70
2018-04-27T20:03:57.689Z,2.07
2018-04-27T20:06:25.248Z,1.83
2018-04-27T20:08:52.832Z,2.03
2018-04-27T20:11:20.414Z,1.90
2018-04-27T20:13:48.884Z,2.13
2018-04-27T20:19:17.232Z,2.73
2018-04-27T20:21:44.786Z,2.13
2018-04-27T20:24:12.355Z,2.17
2018-04-27T20:26:39.982Z,2.10
2018-04-27T20:29:07.554Z,2.13
2018-04-27T20:31:35.112Z,2.10
2018-04-27T20:34:02.827Z,2.17
2018-04-27T20:36:30.363Z,2.50
2018-04-27T20:38:57.918Z,2.60
2018-04-27T20:41:25.455Z,3.27
2018-04-27T20:43:53.837Z,2.70
2018-04-27T20:46:21.645Z,2.27
2018-04-27T20:48:51.834Z,2.10
2018-04-27T20:51:20.147Z,2.50
2018-04-27T20:54:04.245Z,2.50
2018-04-27T20:56:41.687Z,2.50
2018-04-27T20:59:09.289Z,2.33
2018-04-27T21:01:37.576Z,2.30
2018-04-27T21:04:05.110Z,2.63
2018-04-27T21:06:32.636Z,2.67
2018-04-27T21:09:00.160Z,3.07
2018-04-27T21:11:27.742Z,3.40
2018-04-27T21:13:55.294Z,3.20
2018-04-27T21:16:22.812Z,3.20
2018-04-27T21:18:50.372Z,2.77
2018-04-27T21:21:17.922Z,3.47
2018-04-27T21:23:45.423Z,2.90
2018-04-27T21:26:19.790Z,3.10
2018-04-27T21:28:47.328Z,2.67
2018-04-27T21:31:14.869Z,3.70
2018-04-27T21:33:57.284Z,2.73
2018-04-27T21:36:30.176Z,3.10
2018-04-27T21:39:26.110Z,3.47
2018-04-27T21:42:12.840Z,3.07
2018-04-27T21:44:41.214Z,2.53
2018-04-27T21:50:16.371Z,3.17
2018-04-27T21:52:49.312Z,3.40
2018-04-27T21:55:16.829Z,3.20
2018-04-27T21:57:55.930Z,3.27
2018-04-27T22:00:25.093Z,3.43
2018-04-27T22:03:04.486Z,3.00
2018-04-27T22:05:31.997Z,3.73
2018-04-27T22:07:59.525Z,3.60
2018-04-27T22:10:27.246Z,4.20
2018-04-27T22:12:57.714Z,4.13
2018-04-27T22:15:25.234Z,4.97
2018-04-27T22:17:52.753Z,3.60
2018-04-27T22:20:22.049Z,3.53
2018-04-27T22:22:50.486Z,4.30
2018-04-27T22:25:29.208Z,4.13
2018-04-27T22:27:59.122Z,4.13
2018-04-27T22:30:28.278Z,4.43
2018-04-27T22:32:55.794Z,5.20
2018-04-27T22:35:34.080Z,5.60
2018-04-27T22:38:01.596Z,5.07
2018-04-27T22:40:48.644Z,4.97
2018-04-27T22:43:18.752Z,4.70
2018-04-27T22:46:01.914Z,4.73
2018-04-27T22:48:31.229Z,5.10
2018-04-27T22:51:00.158Z,5.30
2018-04-27T22:53:32.692Z,4.57
2018-04-27T22:56:00.213Z,5.70
2018-04-27T22:58:28.507Z,4.90
2018-04-27T23:00:59.548Z,4.87
2018-04-27T23:03:27.866Z,4.63
2018-04-27T23:05:55.399Z,4.63
2018-04-27T23:08:22.921Z,4.30
2018-04-27T23:11:17.516Z,4.77
2018-04-27T23:13:46.566Z,5.40
2018-04-27T23:16:14.894Z,5.47
2018-04-27T23:18:43.180Z,5.10
2018-04-27T23:21:14.338Z,5.30
2018-04-27T23:23:41.878Z,4.93
2018-04-27T23:26:09.426Z,4.30
2018-04-27T23:28:37.708Z,4.30
2018-04-27T23:31:05.225Z,4.70
2018-04-27T23:33:33.549Z,4.77
2018-04-27T23:36:01.087Z,4.97
2018-04-27T23:38:28.610Z,4.87
2018-04-27T23:40:56.204Z,4.53
2018-04-27T23:43:25.171Z,4.50
2018-04-27T23:45:53.557Z,4.50
2018-04-27T23:48:21.112Z,4.77
2018-04-27T23:50:51.316Z,4.57
2018-04-27T23:53:18.877Z,4.43
2018-04-27T23:55:46.425Z,5.07
2018-04-27T23:58:16.752Z,4.67
